KBJI/BJI METAR and TAF weather

Enter ICAO airport designator
Station Type Date Time Source
KBJI METAR 2019/08/22 02:36 UTC NOAA

KBJI 220236Z AUTO 31004KT 10SM BKN060 13/10 A3007 RMK AO2 T01310100


Station Type Date Time Source
KBJI Decoded METAR 2019/08/22 02:36 UTC NOAA

Station name not available
Aug 21, 2019 - 10:36 PM EDT / 2019.08.22 0236 UTC
Wind: from the NW (310 degrees) at 5 MPH (4 KT):0
Visibility: 10 mile(s):0
Sky conditions: mostly cloudy
Temperature: 55.6 F (13.1 C)
Dew Point: 50.0 F (10.0 C)
Relative Humidity: 81%
Pressure (altimeter): 30.07 in. Hg (1018 hPa)
ob: KBJI 220236Z AUTO 31004KT 10SM BKN060 13/10 A3007 RMK AO2 T01310100
cycle: 2

Station Type Date Time Source
KBJI TAF 2019/08/21 23:24 UTC NOAA

TAF
AMD KBJI 212323Z 2123/2224 34006KT P6SM BKN050
FM220400 33005KT P6SM SCT050
FM221600 02005KT P6SM BKN035
FM222300 VRB04KT P6SM SCT080

Example: see airport list